<?xml version="1.0" encoding="UTF-8" standalone="no" ?>
<gpx xmlns="http://www.topografix.com/GPX/1/1" xmlns:xsi="http://www.w3.org/2001/XMLSchema-instance" xsi:schemaLocation="http://www.topografix.com/GPX/1/1 http://www.topografix.com/GPX/1/1/gpx.xsd" version="1.1" creator="VisuGPX - https://www.visugpx.com">
  <metadata>
    <name>rando reignac 8 km</name>
    <desc><![CDATA[photos de la rando dispo en suivant le lien [url]http://rando.pedestre.33.over-blog.com/2020/09/rando-reignac-8.5-km.html[/url]]]></desc>
  </metadata>
  <trk>
    <name><![CDATA[rando reignac 8 km]]></name>
    <trkseg>
      <trkpt lat="45.23546" lon="-0.50923">
        <ele>55</ele>
        <time>2018-02-16T11:49:16Z</time>
      </trkpt>
      <trkpt lat="45.23563" lon="-0.50928">
        <ele>55</ele>
        <time>2018-02-16T11:50:16Z</time>
      </trkpt>
      <trkpt lat="45.23605" lon="-0.50942">
        <ele>54</ele>
        <time>2018-02-16T11:51:16Z</time>
      </trkpt>
      <trkpt lat="45.23612" lon="-0.50944">
        <ele>54</ele>
        <time>2018-02-16T11:52:16Z</time>
      </trkpt>
      <trkpt lat="45.23627" lon="-0.50954">
        <ele>54</ele>
        <time>2018-02-16T11:53:16Z</time>
      </trkpt>
      <trkpt lat="45.23639" lon="-0.50962">
        <ele>54</ele>
        <time>2018-02-16T11:54:16Z</time>
      </trkpt>
      <trkpt lat="45.23651" lon="-0.50975">
        <ele>54</ele>
        <time>2018-02-16T11:55:16Z</time>
      </trkpt>
      <trkpt lat="45.23657" lon="-0.50986">
        <ele>54</ele>
        <time>2018-02-16T11:56:16Z</time>
      </trkpt>
      <trkpt lat="45.23673" lon="-0.51009">
        <ele>54</ele>
        <time>2018-02-16T11:57:16Z</time>
      </trkpt>
      <trkpt lat="45.23673" lon="-0.51009">
        <ele>54</ele>
        <time>2018-02-16T11:58:16Z</time>
      </trkpt>
      <trkpt lat="45.2367" lon="-0.51023">
        <ele>54</ele>
        <time>2018-02-16T11:59:16Z</time>
      </trkpt>
      <trkpt lat="45.23663" lon="-0.51053">
        <ele>53</ele>
        <time>2018-02-16T12:00:16Z</time>
      </trkpt>
      <trkpt lat="45.23658" lon="-0.51069">
        <ele>53</ele>
        <time>2018-02-16T12:01:16Z</time>
      </trkpt>
      <trkpt lat="45.2365" lon="-0.51086">
        <ele>53</ele>
        <time>2018-02-16T12:02:16Z</time>
      </trkpt>
      <trkpt lat="45.23638" lon="-0.51103">
        <ele>52</ele>
        <time>2018-02-16T12:03:16Z</time>
      </trkpt>
      <trkpt lat="45.2363" lon="-0.51116">
        <ele>52</ele>
        <time>2018-02-16T12:04:16Z</time>
      </trkpt>
      <trkpt lat="45.23615" lon="-0.51146">
        <ele>51</ele>
        <time>2018-02-16T12:05:16Z</time>
      </trkpt>
      <trkpt lat="45.23608" lon="-0.5116">
        <ele>51</ele>
        <time>2018-02-16T12:06:16Z</time>
      </trkpt>
      <trkpt lat="45.2359" lon="-0.51199">
        <ele>50</ele>
        <time>2018-02-16T12:07:16Z</time>
      </trkpt>
      <trkpt lat="45.23564" lon="-0.51255">
        <ele>50</ele>
        <time>2018-02-16T12:08:16Z</time>
      </trkpt>
      <trkpt lat="45.23556" lon="-0.51268">
        <ele>50</ele>
        <time>2018-02-16T12:09:16Z</time>
      </trkpt>
      <trkpt lat="45.23554" lon="-0.51273">
        <ele>49</ele>
        <time>2018-02-16T12:10:16Z</time>
      </trkpt>
      <trkpt lat="45.23554" lon="-0.51273">
        <ele>49</ele>
        <time>2018-02-16T12:11:16Z</time>
      </trkpt>
      <trkpt lat="45.23557" lon="-0.51286">
        <ele>49</ele>
        <time>2018-02-16T12:12:16Z</time>
      </trkpt>
      <trkpt lat="45.23557" lon="-0.51286">
        <ele>49</ele>
        <time>2018-02-16T12:13:16Z</time>
      </trkpt>
      <trkpt lat="45.2355" lon="-0.51301">
        <ele>49</ele>
        <time>2018-02-16T12:14:16Z</time>
      </trkpt>
      <trkpt lat="45.23542" lon="-0.51326">
        <ele>49</ele>
        <time>2018-02-16T12:15:16Z</time>
      </trkpt>
      <trkpt lat="45.23535" lon="-0.51362">
        <ele>48</ele>
        <time>2018-02-16T12:16:16Z</time>
      </trkpt>
      <trkpt lat="45.23531" lon="-0.51382">
        <ele>48</ele>
        <time>2018-02-16T12:17:16Z</time>
      </trkpt>
      <trkpt lat="45.23526" lon="-0.51399">
        <ele>48</ele>
        <time>2018-02-16T12:18:16Z</time>
      </trkpt>
      <trkpt lat="45.23519" lon="-0.51425">
        <ele>47</ele>
        <time>2018-02-16T12:19:16Z</time>
      </trkpt>
      <trkpt lat="45.23516" lon="-0.51435">
        <ele>47</ele>
        <time>2018-02-16T12:20:16Z</time>
      </trkpt>
      <trkpt lat="45.23512" lon="-0.51444">
        <ele>47</ele>
        <time>2018-02-16T12:21:16Z</time>
      </trkpt>
      <trkpt lat="45.23506" lon="-0.51458">
        <ele>47</ele>
        <time>2018-02-16T12:22:16Z</time>
      </trkpt>
      <trkpt lat="45.23498" lon="-0.51473">
        <ele>47</ele>
        <time>2018-02-16T12:23:16Z</time>
      </trkpt>
      <trkpt lat="45.23471" lon="-0.51519">
        <ele>46</ele>
        <time>2018-02-16T12:24:16Z</time>
      </trkpt>
      <trkpt lat="45.23459" lon="-0.51538">
        <ele>46</ele>
        <time>2018-02-16T12:25:16Z</time>
      </trkpt>
      <trkpt lat="45.2345" lon="-0.51561">
        <ele>45</ele>
        <time>2018-02-16T12:26:16Z</time>
      </trkpt>
      <trkpt lat="45.23448" lon="-0.51566">
        <ele>45</ele>
        <time>2018-02-16T12:27:16Z</time>
      </trkpt>
      <trkpt lat="45.23445" lon="-0.51576">
        <ele>45</ele>
        <time>2018-02-16T12:28:16Z</time>
      </trkpt>
      <trkpt lat="45.23442" lon="-0.51595">
        <ele>45</ele>
        <time>2018-02-16T12:29:16Z</time>
      </trkpt>
      <trkpt lat="45.23441" lon="-0.51608">
        <ele>45</ele>
        <time>2018-02-16T12:30:16Z</time>
      </trkpt>
      <trkpt lat="45.23441" lon="-0.51619">
        <ele>45</ele>
        <time>2018-02-16T12:31:16Z</time>
      </trkpt>
      <trkpt lat="45.23443" lon="-0.51649">
        <ele>45</ele>
        <time>2018-02-16T12:32:16Z</time>
      </trkpt>
      <trkpt lat="45.23446" lon="-0.51673">
        <ele>45</ele>
        <time>2018-02-16T12:33:16Z</time>
      </trkpt>
      <trkpt lat="45.23448" lon="-0.51684">
        <ele>45</ele>
        <time>2018-02-16T12:34:16Z</time>
      </trkpt>
      <trkpt lat="45.23449" lon="-0.51697">
        <ele>45</ele>
        <time>2018-02-16T12:35:16Z</time>
      </trkpt>
      <trkpt lat="45.23451" lon="-0.51727">
        <ele>44</ele>
        <time>2018-02-16T12:36:16Z</time>
      </trkpt>
      <trkpt lat="45.23452" lon="-0.51744">
        <ele>44</ele>
        <time>2018-02-16T12:37:16Z</time>
      </trkpt>
      <trkpt lat="45.2346" lon="-0.5179">
        <ele>44</ele>
        <time>2018-02-16T12:38:16Z</time>
      </trkpt>
      <trkpt lat="45.23464" lon="-0.51813">
        <ele>44</ele>
        <time>2018-02-16T12:39:16Z</time>
      </trkpt>
      <trkpt lat="45.23474" lon="-0.51852">
        <ele>44</ele>
        <time>2018-02-16T12:40:16Z</time>
      </trkpt>
      <trkpt lat="45.2349" lon="-0.51918">
        <ele>45</ele>
        <time>2018-02-16T12:41:16Z</time>
      </trkpt>
      <trkpt lat="45.23492" lon="-0.5193">
        <ele>45</ele>
        <time>2018-02-16T12:42:16Z</time>
      </trkpt>
      <trkpt lat="45.23495" lon="-0.51939">
        <ele>44</ele>
        <time>2018-02-16T12:43:16Z</time>
      </trkpt>
      <trkpt lat="45.23499" lon="-0.51969">
        <ele>44</ele>
        <time>2018-02-16T12:44:16Z</time>
      </trkpt>
      <trkpt lat="45.23507" lon="-0.52032">
        <ele>43</ele>
        <time>2018-02-16T12:45:16Z</time>
      </trkpt>
      <trkpt lat="45.23512" lon="-0.52081">
        <ele>42</ele>
        <time>2018-02-16T12:46:16Z</time>
      </trkpt>
      <trkpt lat="45.23514" lon="-0.52093">
        <ele>42</ele>
        <time>2018-02-16T12:47:16Z</time>
      </trkpt>
      <trkpt lat="45.23515" lon="-0.52098">
        <ele>42</ele>
        <time>2018-02-16T12:48:16Z</time>
      </trkpt>
      <trkpt lat="45.23518" lon="-0.52108">
        <ele>42</ele>
        <time>2018-02-16T12:49:16Z</time>
      </trkpt>
      <trkpt lat="45.23528" lon="-0.52137">
        <ele>41</ele>
        <time>2018-02-16T12:50:16Z</time>
      </trkpt>
      <trkpt lat="45.23537" lon="-0.5216">
        <ele>41</ele>
        <time>2018-02-16T12:51:16Z</time>
      </trkpt>
      <trkpt lat="45.23543" lon="-0.52174">
        <ele>41</ele>
        <time>2018-02-16T12:52:16Z</time>
      </trkpt>
      <trkpt lat="45.23547" lon="-0.52188">
        <ele>41</ele>
        <time>2018-02-16T12:53:16Z</time>
      </trkpt>
      <trkpt lat="45.23555" lon="-0.52222">
        <ele>40</ele>
        <time>2018-02-16T12:54:16Z</time>
      </trkpt>
      <trkpt lat="45.23562" lon="-0.52261">
        <ele>40</ele>
        <time>2018-02-16T12:55:16Z</time>
      </trkpt>
      <trkpt lat="45.2357" lon="-0.52309">
        <ele>41</ele>
        <time>2018-02-16T12:56:16Z</time>
      </trkpt>
      <trkpt lat="45.23575" lon="-0.52345">
        <ele>40</ele>
        <time>2018-02-16T12:57:16Z</time>
      </trkpt>
      <trkpt lat="45.23576" lon="-0.52357">
        <ele>40</ele>
        <time>2018-02-16T12:58:16Z</time>
      </trkpt>
      <trkpt lat="45.23575" lon="-0.52369">
        <ele>40</ele>
        <time>2018-02-16T12:59:16Z</time>
      </trkpt>
      <trkpt lat="45.23573" lon="-0.52378">
        <ele>39</ele>
        <time>2018-02-16T13:00:16Z</time>
      </trkpt>
      <trkpt lat="45.2357" lon="-0.52383">
        <ele>39</ele>
        <time>2018-02-16T13:01:16Z</time>
      </trkpt>
      <trkpt lat="45.23553" lon="-0.524">
        <ele>38</ele>
        <time>2018-02-16T13:02:16Z</time>
      </trkpt>
      <trkpt lat="45.2354" lon="-0.52414">
        <ele>37</ele>
        <time>2018-02-16T13:03:16Z</time>
      </trkpt>
      <trkpt lat="45.23535" lon="-0.52425">
        <ele>37</ele>
        <time>2018-02-16T13:04:16Z</time>
      </trkpt>
      <trkpt lat="45.23531" lon="-0.52435">
        <ele>36</ele>
        <time>2018-02-16T13:05:16Z</time>
      </trkpt>
      <trkpt lat="45.23531" lon="-0.52445">
        <ele>36</ele>
        <time>2018-02-16T13:06:16Z</time>
      </trkpt>
      <trkpt lat="45.23533" lon="-0.5246">
        <ele>36</ele>
        <time>2018-02-16T13:07:16Z</time>
      </trkpt>
      <trkpt lat="45.23539" lon="-0.52488">
        <ele>36</ele>
        <time>2018-02-16T13:08:16Z</time>
      </trkpt>
      <trkpt lat="45.23549" lon="-0.52534">
        <ele>36</ele>
        <time>2018-02-16T13:09:16Z</time>
      </trkpt>
      <trkpt lat="45.23555" lon="-0.52561">
        <ele>35</ele>
        <time>2018-02-16T13:10:16Z</time>
      </trkpt>
      <trkpt lat="45.23559" lon="-0.52594">
        <ele>35</ele>
        <time>2018-02-16T13:11:16Z</time>
      </trkpt>
      <trkpt lat="45.23566" lon="-0.52655">
        <ele>34</ele>
        <time>2018-02-16T13:12:16Z</time>
      </trkpt>
      <trkpt lat="45.23566" lon="-0.52677">
        <ele>34</ele>
        <time>2018-02-16T13:13:16Z</time>
      </trkpt>
      <trkpt lat="45.23569" lon="-0.52686">
        <ele>34</ele>
        <time>2018-02-16T13:14:16Z</time>
      </trkpt>
      <trkpt lat="45.23571" lon="-0.52704">
        <ele>35</ele>
        <time>2018-02-16T13:15:16Z</time>
      </trkpt>
      <trkpt lat="45.23574" lon="-0.52729">
        <ele>35</ele>
        <time>2018-02-16T13:16:16Z</time>
      </trkpt>
      <trkpt lat="45.23573" lon="-0.52744">
        <ele>35</ele>
        <time>2018-02-16T13:17:16Z</time>
      </trkpt>
      <trkpt lat="45.23572" lon="-0.52773">
        <ele>35</ele>
        <time>2018-02-16T13:18:16Z</time>
      </trkpt>
      <trkpt lat="45.23571" lon="-0.528">
        <ele>35</ele>
        <time>2018-02-16T13:19:16Z</time>
      </trkpt>
      <trkpt lat="45.23569" lon="-0.52816">
        <ele>35</ele>
        <time>2018-02-16T13:20:16Z</time>
      </trkpt>
      <trkpt lat="45.23567" lon="-0.52838">
        <ele>35</ele>
        <time>2018-02-16T13:21:16Z</time>
      </trkpt>
      <trkpt lat="45.23568" lon="-0.52848">
        <ele>35</ele>
        <time>2018-02-16T13:22:16Z</time>
      </trkpt>
      <trkpt lat="45.23569" lon="-0.52856">
        <ele>35</ele>
        <time>2018-02-16T13:23:16Z</time>
      </trkpt>
      <trkpt lat="45.23573" lon="-0.52861">
        <ele>35</ele>
        <time>2018-02-16T13:24:16Z</time>
      </trkpt>
      <trkpt lat="45.23583" lon="-0.5287">
        <ele>35</ele>
        <time>2018-02-16T13:25:16Z</time>
      </trkpt>
      <trkpt lat="45.23627" lon="-0.52898">
        <ele>34</ele>
        <time>2018-02-16T13:26:16Z</time>
      </trkpt>
      <trkpt lat="45.23663" lon="-0.52924">
        <ele>34</ele>
        <time>2018-02-16T13:27:16Z</time>
      </trkpt>
      <trkpt lat="45.23668" lon="-0.52927">
        <ele>34</ele>
        <time>2018-02-16T13:28:16Z</time>
      </trkpt>
      <trkpt lat="45.23673" lon="-0.52928">
        <ele>34</ele>
        <time>2018-02-16T13:29:16Z</time>
      </trkpt>
      <trkpt lat="45.23677" lon="-0.52926">
        <ele>34</ele>
        <time>2018-02-16T13:30:16Z</time>
      </trkpt>
      <trkpt lat="45.2369" lon="-0.52916">
        <ele>35</ele>
        <time>2018-02-16T13:31:16Z</time>
      </trkpt>
      <trkpt lat="45.23748" lon="-0.52872">
        <ele>36</ele>
        <time>2018-02-16T13:32:16Z</time>
      </trkpt>
      <trkpt lat="45.23806" lon="-0.5283">
        <ele>37</ele>
        <time>2018-02-16T13:33:16Z</time>
      </trkpt>
      <trkpt lat="45.23863" lon="-0.52785">
        <ele>37</ele>
        <time>2018-02-16T13:34:16Z</time>
      </trkpt>
      <trkpt lat="45.23913" lon="-0.52747">
        <ele>38</ele>
        <time>2018-02-16T13:35:16Z</time>
      </trkpt>
      <trkpt lat="45.23922" lon="-0.52741">
        <ele>38</ele>
        <time>2018-02-16T13:36:16Z</time>
      </trkpt>
      <trkpt lat="45.23968" lon="-0.52718">
        <ele>39</ele>
        <time>2018-02-16T13:37:16Z</time>
      </trkpt>
      <trkpt lat="45.23974" lon="-0.52716">
        <ele>39</ele>
        <time>2018-02-16T13:38:16Z</time>
      </trkpt>
      <trkpt lat="45.2398" lon="-0.52716">
        <ele>39</ele>
        <time>2018-02-16T13:39:16Z</time>
      </trkpt>
      <trkpt lat="45.23988" lon="-0.52719">
        <ele>39</ele>
        <time>2018-02-16T13:40:16Z</time>
      </trkpt>
      <trkpt lat="45.23997" lon="-0.52725">
        <ele>39</ele>
        <time>2018-02-16T13:41:16Z</time>
      </trkpt>
      <trkpt lat="45.24017" lon="-0.52743">
        <ele>39</ele>
        <time>2018-02-16T13:42:16Z</time>
      </trkpt>
      <trkpt lat="45.24034" lon="-0.52756">
        <ele>39</ele>
        <time>2018-02-16T13:43:16Z</time>
      </trkpt>
      <trkpt lat="45.24051" lon="-0.52767">
        <ele>39</ele>
        <time>2018-02-16T13:44:16Z</time>
      </trkpt>
      <trkpt lat="45.24062" lon="-0.52771">
        <ele>39</ele>
        <time>2018-02-16T13:45:16Z</time>
      </trkpt>
      <trkpt lat="45.24073" lon="-0.52775">
        <ele>39</ele>
        <time>2018-02-16T13:46:16Z</time>
      </trkpt>
      <trkpt lat="45.24089" lon="-0.52773">
        <ele>39</ele>
        <time>2018-02-16T13:47:16Z</time>
      </trkpt>
      <trkpt lat="45.24109" lon="-0.52766">
        <ele>39</ele>
        <time>2018-02-16T13:48:16Z</time>
      </trkpt>
      <trkpt lat="45.24132" lon="-0.52754">
        <ele>39</ele>
        <time>2018-02-16T13:49:16Z</time>
      </trkpt>
      <trkpt lat="45.24176" lon="-0.52733">
        <ele>39</ele>
        <time>2018-02-16T13:50:16Z</time>
      </trkpt>
      <trkpt lat="45.24212" lon="-0.52715">
        <ele>39</ele>
        <time>2018-02-16T13:51:16Z</time>
      </trkpt>
      <trkpt lat="45.24223" lon="-0.52709">
        <ele>39</ele>
        <time>2018-02-16T13:52:16Z</time>
      </trkpt>
      <trkpt lat="45.2423" lon="-0.52703">
        <ele>40</ele>
        <time>2018-02-16T13:53:16Z</time>
      </trkpt>
      <trkpt lat="45.24236" lon="-0.52698">
        <ele>40</ele>
        <time>2018-02-16T13:54:16Z</time>
      </trkpt>
      <trkpt lat="45.24248" lon="-0.52689">
        <ele>40</ele>
        <time>2018-02-16T13:55:16Z</time>
      </trkpt>
      <trkpt lat="45.24256" lon="-0.52684">
        <ele>40</ele>
        <time>2018-02-16T13:56:16Z</time>
      </trkpt>
      <trkpt lat="45.24266" lon="-0.5268">
        <ele>40</ele>
        <time>2018-02-16T13:57:16Z</time>
      </trkpt>
      <trkpt lat="45.24274" lon="-0.52678">
        <ele>40</ele>
        <time>2018-02-16T13:58:16Z</time>
      </trkpt>
      <trkpt lat="45.24284" lon="-0.52675">
        <ele>40</ele>
        <time>2018-02-16T13:59:16Z</time>
      </trkpt>
      <trkpt lat="45.2429" lon="-0.52673">
        <ele>40</ele>
        <time>2018-02-16T14:00:16Z</time>
      </trkpt>
      <trkpt lat="45.24294" lon="-0.5267">
        <ele>40</ele>
        <time>2018-02-16T14:01:16Z</time>
      </trkpt>
      <trkpt lat="45.243" lon="-0.52664">
        <ele>41</ele>
        <time>2018-02-16T14:02:16Z</time>
      </trkpt>
      <trkpt lat="45.24311" lon="-0.52646">
        <ele>41</ele>
        <time>2018-02-16T14:03:16Z</time>
      </trkpt>
      <trkpt lat="45.24345" lon="-0.52588">
        <ele>42</ele>
        <time>2018-02-16T14:04:16Z</time>
      </trkpt>
      <trkpt lat="45.2436" lon="-0.52563">
        <ele>42</ele>
        <time>2018-02-16T14:05:16Z</time>
      </trkpt>
      <trkpt lat="45.2436" lon="-0.52563">
        <ele>42</ele>
        <time>2018-02-16T14:06:16Z</time>
      </trkpt>
      <trkpt lat="45.24356" lon="-0.52553">
        <ele>43</ele>
        <time>2018-02-16T14:07:16Z</time>
      </trkpt>
      <trkpt lat="45.24351" lon="-0.52537">
        <ele>43</ele>
        <time>2018-02-16T14:08:16Z</time>
      </trkpt>
      <trkpt lat="45.24341" lon="-0.52511">
        <ele>44</ele>
        <time>2018-02-16T14:09:16Z</time>
      </trkpt>
      <trkpt lat="45.24334" lon="-0.52492">
        <ele>44</ele>
        <time>2018-02-16T14:10:16Z</time>
      </trkpt>
      <trkpt lat="45.24332" lon="-0.52477">
        <ele>45</ele>
        <time>2018-02-16T14:11:16Z</time>
      </trkpt>
      <trkpt lat="45.24321" lon="-0.52441">
        <ele>46</ele>
        <time>2018-02-16T14:12:16Z</time>
      </trkpt>
      <trkpt lat="45.24298" lon="-0.52359">
        <ele>46</ele>
        <time>2018-02-16T14:13:16Z</time>
      </trkpt>
      <trkpt lat="45.24283" lon="-0.5231">
        <ele>46</ele>
        <time>2018-02-16T14:14:16Z</time>
      </trkpt>
      <trkpt lat="45.24264" lon="-0.52255">
        <ele>46</ele>
        <time>2018-02-16T14:15:16Z</time>
      </trkpt>
      <trkpt lat="45.24245" lon="-0.52211">
        <ele>46</ele>
        <time>2018-02-16T14:16:16Z</time>
      </trkpt>
      <trkpt lat="45.24225" lon="-0.52154">
        <ele>46</ele>
        <time>2018-02-16T14:17:16Z</time>
      </trkpt>
      <trkpt lat="45.24205" lon="-0.52109">
        <ele>47</ele>
        <time>2018-02-16T14:18:16Z</time>
      </trkpt>
      <trkpt lat="45.2418" lon="-0.52058">
        <ele>48</ele>
        <time>2018-02-16T14:19:16Z</time>
      </trkpt>
      <trkpt lat="45.2416" lon="-0.52015">
        <ele>48</ele>
        <time>2018-02-16T14:20:16Z</time>
      </trkpt>
      <trkpt lat="45.24151" lon="-0.51995">
        <ele>48</ele>
        <time>2018-02-16T14:21:16Z</time>
      </trkpt>
      <trkpt lat="45.24147" lon="-0.51984">
        <ele>49</ele>
        <time>2018-02-16T14:22:16Z</time>
      </trkpt>
      <trkpt lat="45.24145" lon="-0.51975">
        <ele>49</ele>
        <time>2018-02-16T14:23:16Z</time>
      </trkpt>
      <trkpt lat="45.24142" lon="-0.51958">
        <ele>49</ele>
        <time>2018-02-16T14:24:16Z</time>
      </trkpt>
      <trkpt lat="45.24133" lon="-0.5189">
        <ele>52</ele>
        <time>2018-02-16T14:25:16Z</time>
      </trkpt>
      <trkpt lat="45.24126" lon="-0.51846">
        <ele>53</ele>
        <time>2018-02-16T14:26:16Z</time>
      </trkpt>
      <trkpt lat="45.24125" lon="-0.51837">
        <ele>53</ele>
        <time>2018-02-16T14:27:16Z</time>
      </trkpt>
      <trkpt lat="45.24121" lon="-0.51814">
        <ele>54</ele>
        <time>2018-02-16T14:28:16Z</time>
      </trkpt>
      <trkpt lat="45.24118" lon="-0.5179">
        <ele>55</ele>
        <time>2018-02-16T14:29:16Z</time>
      </trkpt>
      <trkpt lat="45.24113" lon="-0.51758">
        <ele>56</ele>
        <time>2018-02-16T14:30:16Z</time>
      </trkpt>
      <trkpt lat="45.24109" lon="-0.51729">
        <ele>57</ele>
        <time>2018-02-16T14:31:16Z</time>
      </trkpt>
      <trkpt lat="45.24104" lon="-0.51711">
        <ele>57</ele>
        <time>2018-02-16T14:32:16Z</time>
      </trkpt>
      <trkpt lat="45.241" lon="-0.51698">
        <ele>57</ele>
        <time>2018-02-16T14:33:16Z</time>
      </trkpt>
      <trkpt lat="45.24091" lon="-0.51676">
        <ele>58</ele>
        <time>2018-02-16T14:34:16Z</time>
      </trkpt>
      <trkpt lat="45.24083" lon="-0.5166">
        <ele>58</ele>
        <time>2018-02-16T14:35:16Z</time>
      </trkpt>
      <trkpt lat="45.2407" lon="-0.51644">
        <ele>58</ele>
        <time>2018-02-16T14:36:16Z</time>
      </trkpt>
      <trkpt lat="45.2406" lon="-0.51626">
        <ele>58</ele>
        <time>2018-02-16T14:37:16Z</time>
      </trkpt>
      <trkpt lat="45.24053" lon="-0.51612">
        <ele>59</ele>
        <time>2018-02-16T14:38:16Z</time>
      </trkpt>
      <trkpt lat="45.24045" lon="-0.51586">
        <ele>59</ele>
        <time>2018-02-16T14:39:16Z</time>
      </trkpt>
      <trkpt lat="45.24043" lon="-0.51569">
        <ele>59</ele>
        <time>2018-02-16T14:40:16Z</time>
      </trkpt>
      <trkpt lat="45.2404" lon="-0.51546">
        <ele>60</ele>
        <time>2018-02-16T14:41:16Z</time>
      </trkpt>
      <trkpt lat="45.24038" lon="-0.51514">
        <ele>60</ele>
        <time>2018-02-16T14:42:16Z</time>
      </trkpt>
      <trkpt lat="45.24036" lon="-0.51493">
        <ele>61</ele>
        <time>2018-02-16T14:43:16Z</time>
      </trkpt>
      <trkpt lat="45.24036" lon="-0.51479">
        <ele>61</ele>
        <time>2018-02-16T14:44:16Z</time>
      </trkpt>
      <trkpt lat="45.24034" lon="-0.5146">
        <ele>61</ele>
        <time>2018-02-16T14:45:16Z</time>
      </trkpt>
      <trkpt lat="45.24031" lon="-0.51437">
        <ele>61</ele>
        <time>2018-02-16T14:46:16Z</time>
      </trkpt>
      <trkpt lat="45.24028" lon="-0.51417">
        <ele>61</ele>
        <time>2018-02-16T14:47:16Z</time>
      </trkpt>
      <trkpt lat="45.24026" lon="-0.51401">
        <ele>61</ele>
        <time>2018-02-16T14:48:16Z</time>
      </trkpt>
      <trkpt lat="45.24025" lon="-0.51387">
        <ele>61</ele>
        <time>2018-02-16T14:49:16Z</time>
      </trkpt>
      <trkpt lat="45.24025" lon="-0.51363">
        <ele>61</ele>
        <time>2018-02-16T14:50:16Z</time>
      </trkpt>
      <trkpt lat="45.24025" lon="-0.5135">
        <ele>61</ele>
        <time>2018-02-16T14:51:16Z</time>
      </trkpt>
      <trkpt lat="45.24024" lon="-0.5134">
        <ele>61</ele>
        <time>2018-02-16T14:52:16Z</time>
      </trkpt>
      <trkpt lat="45.24026" lon="-0.51326">
        <ele>61</ele>
        <time>2018-02-16T14:53:16Z</time>
      </trkpt>
      <trkpt lat="45.24026" lon="-0.51318">
        <ele>61</ele>
        <time>2018-02-16T14:54:16Z</time>
      </trkpt>
      <trkpt lat="45.24028" lon="-0.51309">
        <ele>61</ele>
        <time>2018-02-16T14:55:16Z</time>
      </trkpt>
      <trkpt lat="45.24045" lon="-0.5124">
        <ele>60</ele>
        <time>2018-02-16T14:56:16Z</time>
      </trkpt>
      <trkpt lat="45.24056" lon="-0.51193">
        <ele>59</ele>
        <time>2018-02-16T14:57:16Z</time>
      </trkpt>
      <trkpt lat="45.24057" lon="-0.51192">
        <ele>59</ele>
        <time>2018-02-16T14:58:16Z</time>
      </trkpt>
      <trkpt lat="45.24059" lon="-0.51181">
        <ele>59</ele>
        <time>2018-02-16T14:59:16Z</time>
      </trkpt>
      <trkpt lat="45.24059" lon="-0.51181">
        <ele>59</ele>
        <time>2018-02-16T15:00:16Z</time>
      </trkpt>
      <trkpt lat="45.24045" lon="-0.51166">
        <ele>59</ele>
        <time>2018-02-16T15:01:16Z</time>
      </trkpt>
      <trkpt lat="45.24037" lon="-0.51161">
        <ele>59</ele>
        <time>2018-02-16T15:02:16Z</time>
      </trkpt>
      <trkpt lat="45.2403" lon="-0.51156">
        <ele>59</ele>
        <time>2018-02-16T15:03:16Z</time>
      </trkpt>
      <trkpt lat="45.2398" lon="-0.51141">
        <ele>59</ele>
        <time>2018-02-16T15:04:16Z</time>
      </trkpt>
      <trkpt lat="45.23908" lon="-0.51118">
        <ele>59</ele>
        <time>2018-02-16T15:05:16Z</time>
      </trkpt>
      <trkpt lat="45.23908" lon="-0.51118">
        <ele>59</ele>
        <time>2018-02-16T15:06:16Z</time>
      </trkpt>
      <trkpt lat="45.23909" lon="-0.51115">
        <ele>59</ele>
        <time>2018-02-16T15:07:16Z</time>
      </trkpt>
      <trkpt lat="45.2391" lon="-0.51113">
        <ele>59</ele>
        <time>2018-02-16T15:08:16Z</time>
      </trkpt>
      <trkpt lat="45.23912" lon="-0.51111">
        <ele>59</ele>
        <time>2018-02-16T15:09:16Z</time>
      </trkpt>
      <trkpt lat="45.23914" lon="-0.51111">
        <ele>59</ele>
        <time>2018-02-16T15:10:16Z</time>
      </trkpt>
      <trkpt lat="45.23946" lon="-0.51102">
        <ele>59</ele>
        <time>2018-02-16T15:11:16Z</time>
      </trkpt>
      <trkpt lat="45.23988" lon="-0.51093">
        <ele>59</ele>
        <time>2018-02-16T15:12:16Z</time>
      </trkpt>
      <trkpt lat="45.24048" lon="-0.51082">
        <ele>58</ele>
        <time>2018-02-16T15:13:16Z</time>
      </trkpt>
      <trkpt lat="45.24098" lon="-0.51073">
        <ele>57</ele>
        <time>2018-02-16T15:14:16Z</time>
      </trkpt>
      <trkpt lat="45.24151" lon="-0.51066">
        <ele>55</ele>
        <time>2018-02-16T15:15:16Z</time>
      </trkpt>
      <trkpt lat="45.24191" lon="-0.51061">
        <ele>54</ele>
        <time>2018-02-16T15:16:16Z</time>
      </trkpt>
      <trkpt lat="45.24236" lon="-0.51055">
        <ele>53</ele>
        <time>2018-02-16T15:17:16Z</time>
      </trkpt>
      <trkpt lat="45.24288" lon="-0.51048">
        <ele>52</ele>
        <time>2018-02-16T15:18:16Z</time>
      </trkpt>
      <trkpt lat="45.24303" lon="-0.51045">
        <ele>52</ele>
        <time>2018-02-16T15:19:16Z</time>
      </trkpt>
      <trkpt lat="45.24385" lon="-0.51036">
        <ele>50</ele>
        <time>2018-02-16T15:20:16Z</time>
      </trkpt>
      <trkpt lat="45.24432" lon="-0.51029">
        <ele>50</ele>
        <time>2018-02-16T15:21:16Z</time>
      </trkpt>
      <trkpt lat="45.24456" lon="-0.51026">
        <ele>49</ele>
        <time>2018-02-16T15:22:16Z</time>
      </trkpt>
      <trkpt lat="45.24553" lon="-0.51015">
        <ele>48</ele>
        <time>2018-02-16T15:23:16Z</time>
      </trkpt>
      <trkpt lat="45.24621" lon="-0.51007">
        <ele>45</ele>
        <time>2018-02-16T15:24:16Z</time>
      </trkpt>
      <trkpt lat="45.2471" lon="-0.50995">
        <ele>43</ele>
        <time>2018-02-16T15:25:16Z</time>
      </trkpt>
      <trkpt lat="45.24812" lon="-0.50983">
        <ele>45</ele>
        <time>2018-02-16T15:26:16Z</time>
      </trkpt>
      <trkpt lat="45.2498" lon="-0.50962">
        <ele>39</ele>
        <time>2018-02-16T15:27:16Z</time>
      </trkpt>
      <trkpt lat="45.25049" lon="-0.50954">
        <ele>37</ele>
        <time>2018-02-16T15:28:16Z</time>
      </trkpt>
      <trkpt lat="45.25072" lon="-0.50949">
        <ele>37</ele>
        <time>2018-02-16T15:29:16Z</time>
      </trkpt>
      <trkpt lat="45.25125" lon="-0.5094">
        <ele>39</ele>
        <time>2018-02-16T15:30:16Z</time>
      </trkpt>
      <trkpt lat="45.25125" lon="-0.5094">
        <ele>39</ele>
        <time>2018-02-16T15:31:16Z</time>
      </trkpt>
      <trkpt lat="45.25126" lon="-0.50933">
        <ele>39</ele>
        <time>2018-02-16T15:32:16Z</time>
      </trkpt>
      <trkpt lat="45.25125" lon="-0.50929">
        <ele>39</ele>
        <time>2018-02-16T15:33:16Z</time>
      </trkpt>
      <trkpt lat="45.25125" lon="-0.50924">
        <ele>39</ele>
        <time>2018-02-16T15:34:16Z</time>
      </trkpt>
      <trkpt lat="45.25122" lon="-0.50917">
        <ele>39</ele>
        <time>2018-02-16T15:35:16Z</time>
      </trkpt>
      <trkpt lat="45.25102" lon="-0.50864">
        <ele>39</ele>
        <time>2018-02-16T15:36:16Z</time>
      </trkpt>
      <trkpt lat="45.25095" lon="-0.50849">
        <ele>39</ele>
        <time>2018-02-16T15:37:16Z</time>
      </trkpt>
      <trkpt lat="45.25089" lon="-0.50839">
        <ele>39</ele>
        <time>2018-02-16T15:38:16Z</time>
      </trkpt>
      <trkpt lat="45.25079" lon="-0.50825">
        <ele>39</ele>
        <time>2018-02-16T15:39:16Z</time>
      </trkpt>
      <trkpt lat="45.25072" lon="-0.50814">
        <ele>40</ele>
        <time>2018-02-16T15:40:16Z</time>
      </trkpt>
      <trkpt lat="45.25066" lon="-0.50804">
        <ele>40</ele>
        <time>2018-02-16T15:41:16Z</time>
      </trkpt>
      <trkpt lat="45.25053" lon="-0.50779">
        <ele>41</ele>
        <time>2018-02-16T15:42:16Z</time>
      </trkpt>
      <trkpt lat="45.25046" lon="-0.5076">
        <ele>41</ele>
        <time>2018-02-16T15:43:16Z</time>
      </trkpt>
      <trkpt lat="45.25033" lon="-0.50717">
        <ele>42</ele>
        <time>2018-02-16T15:44:16Z</time>
      </trkpt>
      <trkpt lat="45.25024" lon="-0.50683">
        <ele>43</ele>
        <time>2018-02-16T15:45:16Z</time>
      </trkpt>
      <trkpt lat="45.2502" lon="-0.50662">
        <ele>43</ele>
        <time>2018-02-16T15:46:16Z</time>
      </trkpt>
      <trkpt lat="45.25017" lon="-0.50651">
        <ele>43</ele>
        <time>2018-02-16T15:47:16Z</time>
      </trkpt>
      <trkpt lat="45.25014" lon="-0.50634">
        <ele>43</ele>
        <time>2018-02-16T15:48:16Z</time>
      </trkpt>
      <trkpt lat="45.25012" lon="-0.50619">
        <ele>44</ele>
        <time>2018-02-16T15:49:16Z</time>
      </trkpt>
      <trkpt lat="45.25011" lon="-0.50604">
        <ele>44</ele>
        <time>2018-02-16T15:50:16Z</time>
      </trkpt>
      <trkpt lat="45.25012" lon="-0.50597">
        <ele>44</ele>
        <time>2018-02-16T15:51:16Z</time>
      </trkpt>
      <trkpt lat="45.25013" lon="-0.50585">
        <ele>44</ele>
        <time>2018-02-16T15:52:16Z</time>
      </trkpt>
      <trkpt lat="45.25021" lon="-0.50559">
        <ele>44</ele>
        <time>2018-02-16T15:53:16Z</time>
      </trkpt>
      <trkpt lat="45.25028" lon="-0.50529">
        <ele>45</ele>
        <time>2018-02-16T15:54:16Z</time>
      </trkpt>
      <trkpt lat="45.25037" lon="-0.50493">
        <ele>45</ele>
        <time>2018-02-16T15:55:16Z</time>
      </trkpt>
      <trkpt lat="45.25037" lon="-0.50487">
        <ele>45</ele>
        <time>2018-02-16T15:56:16Z</time>
      </trkpt>
      <trkpt lat="45.25038" lon="-0.50471">
        <ele>45</ele>
        <time>2018-02-16T15:57:16Z</time>
      </trkpt>
      <trkpt lat="45.25036" lon="-0.50442">
        <ele>46</ele>
        <time>2018-02-16T15:58:16Z</time>
      </trkpt>
      <trkpt lat="45.25032" lon="-0.50404">
        <ele>46</ele>
        <time>2018-02-16T15:59:16Z</time>
      </trkpt>
      <trkpt lat="45.2503" lon="-0.5038">
        <ele>46</ele>
        <time>2018-02-16T16:00:16Z</time>
      </trkpt>
      <trkpt lat="45.25029" lon="-0.50363">
        <ele>46</ele>
        <time>2018-02-16T16:01:16Z</time>
      </trkpt>
      <trkpt lat="45.25028" lon="-0.50332">
        <ele>46</ele>
        <time>2018-02-16T16:02:16Z</time>
      </trkpt>
      <trkpt lat="45.25028" lon="-0.503">
        <ele>46</ele>
        <time>2018-02-16T16:03:16Z</time>
      </trkpt>
      <trkpt lat="45.25027" lon="-0.50265">
        <ele>46</ele>
        <time>2018-02-16T16:04:16Z</time>
      </trkpt>
      <trkpt lat="45.25027" lon="-0.50241">
        <ele>46</ele>
        <time>2018-02-16T16:05:16Z</time>
      </trkpt>
      <trkpt lat="45.25027" lon="-0.50221">
        <ele>45</ele>
        <time>2018-02-16T16:06:16Z</time>
      </trkpt>
      <trkpt lat="45.25027" lon="-0.50205">
        <ele>45</ele>
        <time>2018-02-16T16:07:16Z</time>
      </trkpt>
      <trkpt lat="45.25028" lon="-0.50193">
        <ele>45</ele>
        <time>2018-02-16T16:08:16Z</time>
      </trkpt>
      <trkpt lat="45.25027" lon="-0.5018">
        <ele>45</ele>
        <time>2018-02-16T16:09:16Z</time>
      </trkpt>
      <trkpt lat="45.25025" lon="-0.50168">
        <ele>44</ele>
        <time>2018-02-16T16:10:16Z</time>
      </trkpt>
      <trkpt lat="45.25025" lon="-0.50168">
        <ele>44</ele>
        <time>2018-02-16T16:11:16Z</time>
      </trkpt>
      <trkpt lat="45.25016" lon="-0.50178">
        <ele>44</ele>
        <time>2018-02-16T16:12:16Z</time>
      </trkpt>
      <trkpt lat="45.24998" lon="-0.50191">
        <ele>45</ele>
        <time>2018-02-16T16:13:16Z</time>
      </trkpt>
      <trkpt lat="45.24971" lon="-0.50211">
        <ele>46</ele>
        <time>2018-02-16T16:14:16Z</time>
      </trkpt>
      <trkpt lat="45.24957" lon="-0.50223">
        <ele>46</ele>
        <time>2018-02-16T16:15:16Z</time>
      </trkpt>
      <trkpt lat="45.24952" lon="-0.50229">
        <ele>46</ele>
        <time>2018-02-16T16:16:16Z</time>
      </trkpt>
      <trkpt lat="45.24948" lon="-0.50233">
        <ele>46</ele>
        <time>2018-02-16T16:17:16Z</time>
      </trkpt>
      <trkpt lat="45.24941" lon="-0.50241">
        <ele>47</ele>
        <time>2018-02-16T16:18:16Z</time>
      </trkpt>
      <trkpt lat="45.24936" lon="-0.50246">
        <ele>47</ele>
        <time>2018-02-16T16:19:16Z</time>
      </trkpt>
      <trkpt lat="45.24924" lon="-0.50259">
        <ele>47</ele>
        <time>2018-02-16T16:20:16Z</time>
      </trkpt>
      <trkpt lat="45.24918" lon="-0.50265">
        <ele>47</ele>
        <time>2018-02-16T16:21:16Z</time>
      </trkpt>
      <trkpt lat="45.24912" lon="-0.5027">
        <ele>47</ele>
        <time>2018-02-16T16:22:16Z</time>
      </trkpt>
      <trkpt lat="45.24899" lon="-0.50277">
        <ele>47</ele>
        <time>2018-02-16T16:23:16Z</time>
      </trkpt>
      <trkpt lat="45.24876" lon="-0.50286">
        <ele>48</ele>
        <time>2018-02-16T16:24:16Z</time>
      </trkpt>
      <trkpt lat="45.24838" lon="-0.503">
        <ele>49</ele>
        <time>2018-02-16T16:25:16Z</time>
      </trkpt>
      <trkpt lat="45.2482" lon="-0.50306">
        <ele>48</ele>
        <time>2018-02-16T16:26:16Z</time>
      </trkpt>
      <trkpt lat="45.24813" lon="-0.50306">
        <ele>48</ele>
        <time>2018-02-16T16:27:16Z</time>
      </trkpt>
      <trkpt lat="45.24801" lon="-0.50304">
        <ele>48</ele>
        <time>2018-02-16T16:28:16Z</time>
      </trkpt>
      <trkpt lat="45.24787" lon="-0.503">
        <ele>48</ele>
        <time>2018-02-16T16:29:16Z</time>
      </trkpt>
      <trkpt lat="45.24768" lon="-0.50293">
        <ele>48</ele>
        <time>2018-02-16T16:30:16Z</time>
      </trkpt>
      <trkpt lat="45.24749" lon="-0.50289">
        <ele>48</ele>
        <time>2018-02-16T16:31:16Z</time>
      </trkpt>
      <trkpt lat="45.24715" lon="-0.50281">
        <ele>48</ele>
        <time>2018-02-16T16:32:16Z</time>
      </trkpt>
      <trkpt lat="45.24669" lon="-0.50273">
        <ele>48</ele>
        <time>2018-02-16T16:33:16Z</time>
      </trkpt>
      <trkpt lat="45.24635" lon="-0.50267">
        <ele>49</ele>
        <time>2018-02-16T16:34:16Z</time>
      </trkpt>
      <trkpt lat="45.24609" lon="-0.50263">
        <ele>50</ele>
        <time>2018-02-16T16:35:16Z</time>
      </trkpt>
      <trkpt lat="45.24581" lon="-0.50259">
        <ele>51</ele>
        <time>2018-02-16T16:36:16Z</time>
      </trkpt>
      <trkpt lat="45.24561" lon="-0.50259">
        <ele>51</ele>
        <time>2018-02-16T16:37:16Z</time>
      </trkpt>
      <trkpt lat="45.24548" lon="-0.5026">
        <ele>51</ele>
        <time>2018-02-16T16:38:16Z</time>
      </trkpt>
      <trkpt lat="45.24537" lon="-0.50261">
        <ele>51</ele>
        <time>2018-02-16T16:39:16Z</time>
      </trkpt>
      <trkpt lat="45.24523" lon="-0.50261">
        <ele>51</ele>
        <time>2018-02-16T16:40:16Z</time>
      </trkpt>
      <trkpt lat="45.24516" lon="-0.50261">
        <ele>51</ele>
        <time>2018-02-16T16:41:16Z</time>
      </trkpt>
      <trkpt lat="45.24512" lon="-0.50261">
        <ele>51</ele>
        <time>2018-02-16T16:42:16Z</time>
      </trkpt>
      <trkpt lat="45.24501" lon="-0.5026">
        <ele>51</ele>
        <time>2018-02-16T16:43:16Z</time>
      </trkpt>
      <trkpt lat="45.24494" lon="-0.50259">
        <ele>51</ele>
        <time>2018-02-16T16:44:16Z</time>
      </trkpt>
      <trkpt lat="45.24486" lon="-0.50259">
        <ele>51</ele>
        <time>2018-02-16T16:45:16Z</time>
      </trkpt>
      <trkpt lat="45.24466" lon="-0.50257">
        <ele>51</ele>
        <time>2018-02-16T16:46:16Z</time>
      </trkpt>
      <trkpt lat="45.24452" lon="-0.50256">
        <ele>51</ele>
        <time>2018-02-16T16:47:16Z</time>
      </trkpt>
      <trkpt lat="45.24437" lon="-0.50255">
        <ele>51</ele>
        <time>2018-02-16T16:48:16Z</time>
      </trkpt>
      <trkpt lat="45.24428" lon="-0.50256">
        <ele>51</ele>
        <time>2018-02-16T16:49:16Z</time>
      </trkpt>
      <trkpt lat="45.24416" lon="-0.50259">
        <ele>51</ele>
        <time>2018-02-16T16:50:16Z</time>
      </trkpt>
      <trkpt lat="45.24404" lon="-0.50264">
        <ele>51</ele>
        <time>2018-02-16T16:51:16Z</time>
      </trkpt>
      <trkpt lat="45.24385" lon="-0.50274">
        <ele>51</ele>
        <time>2018-02-16T16:52:16Z</time>
      </trkpt>
      <trkpt lat="45.24363" lon="-0.50287">
        <ele>52</ele>
        <time>2018-02-16T16:53:16Z</time>
      </trkpt>
      <trkpt lat="45.24335" lon="-0.50301">
        <ele>52</ele>
        <time>2018-02-16T16:54:16Z</time>
      </trkpt>
      <trkpt lat="45.24305" lon="-0.50312">
        <ele>52</ele>
        <time>2018-02-16T16:55:16Z</time>
      </trkpt>
      <trkpt lat="45.24271" lon="-0.50319">
        <ele>52</ele>
        <time>2018-02-16T16:56:16Z</time>
      </trkpt>
      <trkpt lat="45.24248" lon="-0.50323">
        <ele>52</ele>
        <time>2018-02-16T16:57:16Z</time>
      </trkpt>
      <trkpt lat="45.24233" lon="-0.50323">
        <ele>53</ele>
        <time>2018-02-16T16:58:16Z</time>
      </trkpt>
      <trkpt lat="45.2421" lon="-0.50322">
        <ele>55</ele>
        <time>2018-02-16T16:59:16Z</time>
      </trkpt>
      <trkpt lat="45.2418" lon="-0.5032">
        <ele>57</ele>
        <time>2018-02-16T17:00:16Z</time>
      </trkpt>
      <trkpt lat="45.2418" lon="-0.5032">
        <ele>57</ele>
        <time>2018-02-16T17:01:16Z</time>
      </trkpt>
      <trkpt lat="45.24181" lon="-0.50316">
        <ele>57</ele>
        <time>2018-02-16T17:02:16Z</time>
      </trkpt>
      <trkpt lat="45.24181" lon="-0.50316">
        <ele>57</ele>
        <time>2018-02-16T17:03:16Z</time>
      </trkpt>
      <trkpt lat="45.2418" lon="-0.5032">
        <ele>57</ele>
        <time>2018-02-16T17:04:16Z</time>
      </trkpt>
      <trkpt lat="45.2418" lon="-0.5032">
        <ele>57</ele>
        <time>2018-02-16T17:05:16Z</time>
      </trkpt>
      <trkpt lat="45.24168" lon="-0.5032">
        <ele>58</ele>
        <time>2018-02-16T17:06:16Z</time>
      </trkpt>
      <trkpt lat="45.24153" lon="-0.50319">
        <ele>58</ele>
        <time>2018-02-16T17:07:16Z</time>
      </trkpt>
      <trkpt lat="45.241" lon="-0.50314">
        <ele>59</ele>
        <time>2018-02-16T17:08:16Z</time>
      </trkpt>
      <trkpt lat="45.24073" lon="-0.50315">
        <ele>59</ele>
        <time>2018-02-16T17:09:16Z</time>
      </trkpt>
      <trkpt lat="45.23989" lon="-0.50318">
        <ele>61</ele>
        <time>2018-02-16T17:10:16Z</time>
      </trkpt>
      <trkpt lat="45.23923" lon="-0.50321">
        <ele>63</ele>
        <time>2018-02-16T17:11:16Z</time>
      </trkpt>
      <trkpt lat="45.23873" lon="-0.50322">
        <ele>63</ele>
        <time>2018-02-16T17:12:16Z</time>
      </trkpt>
      <trkpt lat="45.23856" lon="-0.50323">
        <ele>63</ele>
        <time>2018-02-16T17:13:16Z</time>
      </trkpt>
      <trkpt lat="45.2385" lon="-0.50324">
        <ele>63</ele>
        <time>2018-02-16T17:14:16Z</time>
      </trkpt>
      <trkpt lat="45.23828" lon="-0.50328">
        <ele>63</ele>
        <time>2018-02-16T17:15:16Z</time>
      </trkpt>
      <trkpt lat="45.23828" lon="-0.50328">
        <ele>63</ele>
        <time>2018-02-16T17:16:16Z</time>
      </trkpt>
      <trkpt lat="45.23826" lon="-0.50337">
        <ele>63</ele>
        <time>2018-02-16T17:17:16Z</time>
      </trkpt>
      <trkpt lat="45.23819" lon="-0.50356">
        <ele>63</ele>
        <time>2018-02-16T17:18:16Z</time>
      </trkpt>
      <trkpt lat="45.23816" lon="-0.50363">
        <ele>63</ele>
        <time>2018-02-16T17:19:16Z</time>
      </trkpt>
      <trkpt lat="45.23798" lon="-0.50401">
        <ele>63</ele>
        <time>2018-02-16T17:20:16Z</time>
      </trkpt>
      <trkpt lat="45.23796" lon="-0.50406">
        <ele>63</ele>
        <time>2018-02-16T17:21:16Z</time>
      </trkpt>
      <trkpt lat="45.23772" lon="-0.50456">
        <ele>62</ele>
        <time>2018-02-16T17:22:16Z</time>
      </trkpt>
      <trkpt lat="45.23727" lon="-0.5055">
        <ele>60</ele>
        <time>2018-02-16T17:23:16Z</time>
      </trkpt>
      <trkpt lat="45.23718" lon="-0.50575">
        <ele>59</ele>
        <time>2018-02-16T17:24:16Z</time>
      </trkpt>
      <trkpt lat="45.23713" lon="-0.50593">
        <ele>59</ele>
        <time>2018-02-16T17:25:16Z</time>
      </trkpt>
      <trkpt lat="45.23707" lon="-0.50621">
        <ele>58</ele>
        <time>2018-02-16T17:26:16Z</time>
      </trkpt>
      <trkpt lat="45.23697" lon="-0.50694">
        <ele>57</ele>
        <time>2018-02-16T17:27:16Z</time>
      </trkpt>
      <trkpt lat="45.23689" lon="-0.50768">
        <ele>55</ele>
        <time>2018-02-16T17:28:16Z</time>
      </trkpt>
      <trkpt lat="45.23685" lon="-0.50796">
        <ele>55</ele>
        <time>2018-02-16T17:29:16Z</time>
      </trkpt>
      <trkpt lat="45.23683" lon="-0.50802">
        <ele>55</ele>
        <time>2018-02-16T17:30:16Z</time>
      </trkpt>
      <trkpt lat="45.23674" lon="-0.50832">
        <ele>55</ele>
        <time>2018-02-16T17:31:16Z</time>
      </trkpt>
      <trkpt lat="45.23666" lon="-0.50863">
        <ele>55</ele>
        <time>2018-02-16T17:32:16Z</time>
      </trkpt>
      <trkpt lat="45.2366" lon="-0.50877">
        <ele>55</ele>
        <time>2018-02-16T17:33:16Z</time>
      </trkpt>
      <trkpt lat="45.23643" lon="-0.50901">
        <ele>55</ele>
        <time>2018-02-16T17:34:16Z</time>
      </trkpt>
      <trkpt lat="45.23642" lon="-0.50902">
        <ele>55</ele>
        <time>2018-02-16T17:35:16Z</time>
      </trkpt>
    </trkseg>
  </trk>
</gpx>